createdAt,value
2022-12-01T00:01:37.251Z,96648.03
2022-12-01T00:04:05.959Z,96641.84
2022-12-01T00:06:34.329Z,96646.25
2022-12-01T00:09:20.605Z,96648.88
2022-12-01T00:11:50.364Z,96642.81
2022-12-01T00:14:18.736Z,96642.81
2022-12-01T00:16:47.226Z,96634.25
2022-12-01T00:19:15.801Z,96630.91
2022-12-01T00:21:44.211Z,96639.72
2022-12-01T00:24:13.121Z,96639.09
2022-12-01T00:26:41.500Z,96634.84
2022-12-01T00:29:11.200Z,96628.75
2022-12-01T00:31:39.555Z,96629.59
2022-12-01T00:34:11.388Z,96628.75
2022-12-01T00:36:40.438Z,96624.50
2022-12-01T00:39:09.146Z,96630.66
2022-12-01T00:41:37.531Z,96636.75
2022-12-01T00:44:06.500Z,96630.66
2022-12-01T00:46:36.187Z,96628.16
2022-12-01T00:49:04.999Z,96640.41
2022-12-01T00:51:33.437Z,96642.22
2022-12-01T00:54:01.811Z,96639.69
2022-12-01T00:56:30.096Z,96645.75
2022-12-01T00:58:58.516Z,96647.56
2022-12-01T01:01:26.962Z,96648.53
2022-12-01T01:03:56.618Z,96643.41
2022-12-01T01:06:24.950Z,96630.44
2022-12-01T01:08:53.406Z,96651.34
2022-12-01T01:11:21.746Z,96645.19
2022-12-01T01:13:50.126Z,96636.38
2022-12-01T01:16:21.509Z,96635.66
2022-12-01T01:18:50.434Z,96639.09
2022-12-01T01:21:22.065Z,96626.16
2022-12-01T01:23:51.136Z,96627.69
2022-12-01T01:26:22.397Z,96633.88
2022-12-01T01:28:51.659Z,96633.75
2022-12-01T01:31:21.973Z,96630.19
2022-12-01T01:33:50.559Z,96626.72
2022-12-01T01:36:20.831Z,96629.50
2022-12-01T01:38:51.514Z,96635.44
2022-12-01T01:41:21.287Z,96630.44
2022-12-01T01:43:51.341Z,96628.78
2022-12-01T01:46:21.584Z,96631.25
2022-12-01T01:48:54.487Z,96628.78
2022-12-01T01:51:29.280Z,96629.50
2022-12-01T01:54:02.541Z,96627.69
2022-12-01T01:56:31.136Z,96621.38
2022-12-01T01:59:00.538Z,96625.91
2022-12-01T02:01:28.961Z,96620.94
2022-12-01T02:03:57.498Z,96621.63
2022-12-01T02:06:27.255Z,96620.78
2022-12-01T02:08:55.777Z,96624.47
2022-12-01T02:12:01.491Z,96621.16
2022-12-01T02:14:52.163Z,96622.94
2022-12-01T02:17:31.923Z,96621.03
2022-12-01T02:20:37.130Z,96619.38
2022-12-01T02:23:47.416Z,96609.88
2022-12-01T02:26:39.311Z,96604.75
2022-12-01T02:29:52.372Z,96609.00
2022-12-01T02:32:32.123Z,96606.38
2022-12-01T02:35:05.681Z,96610.91
2022-12-01T02:37:41.743Z,96607.34
2022-12-01T02:40:16.215Z,96604.75
2022-12-01T02:42:52.035Z,96611.75
2022-12-01T02:45:31.846Z,96615.22
2022-12-01T02:48:03.855Z,96611.38
2022-12-01T02:50:36.187Z,96613.41
2022-12-01T02:53:07.572Z,96611.03
2022-12-01T02:55:36.220Z,96609.72
2022-12-01T02:58:14.421Z,96613.53
2022-12-01T03:01:02.444Z,96607.00
2022-12-01T03:03:48.500Z,96603.16
2022-12-01T03:06:25.568Z,96604.00
2022-12-01T03:09:03.283Z,96610.31
2022-12-01T03:11:39.699Z,96607.56
2022-12-01T03:14:18.130Z,96605.56
2022-12-01T03:16:52.241Z,96611.84
2022-12-01T03:19:30.698Z,96609.94
2022-12-01T03:22:05.895Z,96607.56
2022-12-01T03:24:36.715Z,96607.78
2022-12-01T03:27:06.908Z,96604.47
2022-12-01T03:29:40.279Z,96607.91
2022-12-01T03:32:14.172Z,96602.69
2022-12-01T03:34:49.637Z,96600.91
2022-12-01T03:37:24.693Z,96598.06
2022-12-01T03:40:00.687Z,96591.53
2022-12-01T03:42:33.364Z,96598.19
2022-12-01T03:45:07.228Z,96597.84
2022-12-01T03:47:37.658Z,96600.69
2022-12-01T03:50:13.317Z,96603.78
2022-12-01T03:52:51.572Z,96603.88
2022-12-01T03:55:23.932Z,96602.34
2022-12-01T03:57:57.424Z,96598.75
2022-12-01T04:00:26.750Z,96600.19
2022-12-01T04:02:56.591Z,96600.53
2022-12-01T04:05:27.424Z,96593.88
2022-12-01T04:07:55.908Z,96602.78
2022-12-01T04:10:24.247Z,96603.25
2022-12-01T04:12:58.698Z,96608.28
2022-12-01T04:15:27.976Z,96606.63
2022-12-01T04:17:56.340Z,96601.00
2022-12-01T04:20:26.084Z,96613.72
2022-12-01T04:22:54.423Z,96606.56
2022-12-01T04:25:23.207Z,96606.06
2022-12-01T04:27:51.547Z,96605.84
2022-12-01T04:30:20.198Z,96608.94
2022-12-01T04:32:48.534Z,96611.53
2022-12-01T04:35:17.302Z,96608.25
2022-12-01T04:37:46.936Z,96610.06
2022-12-01T04:40:15.534Z,96614.72
2022-12-01T04:42:44.116Z,96613.63
2022-12-01T04:45:12.544Z,96614.44
2022-12-01T04:47:40.900Z,96612.56
2022-12-01T04:50:09.832Z,96611.00
2022-12-01T04:52:38.399Z,96613.84
2022-12-01T04:55:09.132Z,96616.34
2022-12-01T04:57:39.574Z,96611.72
2022-12-01T05:00:13.276Z,96609.50
2022-12-01T05:02:43.641Z,96611.84
2022-12-01T05:05:12.408Z,96609.59
2022-12-01T05:07:41.036Z,96604.25
2022-12-01T05:10:13.668Z,96610.53
2022-12-01T05:12:42.148Z,96611.38
2022-12-01T05:15:11.166Z,96618.03
2022-12-01T05:17:39.883Z,96621.13
2022-12-01T05:20:27.144Z,96621.00
2022-12-01T05:23:07.130Z,96620.06
2022-12-01T05:25:38.276Z,96616.25
2022-12-01T05:28:06.999Z,96624.72
2022-12-01T05:30:35.378Z,96623.63
2022-12-01T05:33:03.951Z,96616.88
2022-12-01T05:35:34.302Z,96622.22
2022-12-01T05:38:07.585Z,96627.31
2022-12-01T05:40:38.419Z,96622.22
2022-12-01T05:43:07.748Z,96617.34
2022-12-01T05:45:36.560Z,96624.47
2022-12-01T05:48:05.427Z,96620.28
2022-12-01T05:50:33.818Z,96621.69
2022-12-01T05:53:02.163Z,96623.75
2022-12-01T05:55:30.507Z,96621.22
2022-12-01T05:58:00.412Z,96626.56
2022-12-01T06:00:29.689Z,96620.50
2022-12-01T06:02:58.047Z,96630.00
2022-12-01T06:05:26.460Z,96620.97
2022-12-01T06:07:54.827Z,96624.09
2022-12-01T06:10:23.461Z,96624.91
2022-12-01T06:12:51.757Z,96628.25
2022-12-01T06:15:21.480Z,96628.84
2022-12-01T06:17:49.774Z,96628.84
2022-12-01T06:20:18.544Z,96625.78
2022-12-01T06:22:46.883Z,96626.09
2022-12-01T06:25:15.204Z,96621.13
2022-12-01T06:27:43.932Z,96631.31
2022-12-01T06:30:12.722Z,96631.22
2022-12-01T06:32:42.561Z,96628.72
2022-12-01T06:35:10.960Z,96630.41
2022-12-01T06:37:39.292Z,96633.00
2022-12-01T06:40:08.999Z,96636.56
2022-12-01T06:42:37.379Z,96634.66
2022-12-01T06:45:06.534Z,96639.16
2022-12-01T06:47:35.081Z,96638.25
2022-12-01T06:50:08.032Z,96637.06
2022-12-01T06:52:36.539Z,96647.16
2022-12-01T06:55:05.171Z,96653.09
2022-12-01T06:57:33.768Z,96648.00
2022-12-01T07:00:02.264Z,96654.19
2022-12-01T07:02:31.068Z,96654.41
2022-12-01T07:04:59.552Z,96655.47
2022-12-01T07:07:29.390Z,96657.72
2022-12-01T07:09:57.742Z,96651.44
2022-12-01T07:12:26.197Z,96660.72
2022-12-01T07:14:54.590Z,96661.34
2022-12-01T07:17:23.071Z,96665.59
2022-12-01T07:19:51.516Z,96665.50
2022-12-01T07:22:20.486Z,96674.31
2022-12-01T07:24:50.276Z,96677.63
2022-12-01T07:27:18.649Z,96678.22
2022-12-01T07:29:47.290Z,96670.97
2022-12-01T07:32:16.591Z,96668.94
2022-12-01T07:34:44.903Z,96678.22
2022-12-01T07:37:13.287Z,96675.59
2022-12-01T07:39:41.686Z,96676.31
2022-12-01T07:42:11.439Z,96677.19
2022-12-01T07:44:39.802Z,96673.09
2022-12-01T07:47:08.336Z,96673.25
2022-12-01T07:49:36.761Z,96670.03
2022-12-01T07:52:05.813Z,96677.06
2022-12-01T07:54:34.204Z,96675.97
2022-12-01T07:57:02.556Z,96675.72
2022-12-01T07:59:32.215Z,96678.47
2022-12-01T08:02:00.608Z,96686.53
2022-12-01T08:04:29.062Z,96680.50
2022-12-01T08:06:57.466Z,96681.44
2022-12-01T08:09:25.827Z,96675.13
2022-12-01T08:11:54.156Z,96682.00
2022-12-01T08:14:22.549Z,96684.41
2022-12-01T08:16:52.285Z,96679.53
2022-12-01T08:19:20.792Z,96683.09
2022-12-01T08:21:49.131Z,96680.09
2022-12-01T08:24:17.588Z,96684.28
2022-12-01T08:26:45.971Z,96682.13
2022-12-01T08:29:19.715Z,96680.13
2022-12-01T08:31:48.911Z,96676.91
2022-12-01T08:34:18.666Z,96680.25
2022-12-01T08:36:46.972Z,96681.56
2022-12-01T08:39:16.100Z,96682.97
2022-12-01T08:41:44.436Z,96678.00
2022-12-01T08:44:13.282Z,96682.28
2022-12-01T08:46:41.763Z,96688.81
2022-12-01T08:49:10.070Z,96689.19
2022-12-01T08:51:39.824Z,96687.91
2022-12-01T08:54:08.480Z,96690.88
2022-12-01T08:56:39.255Z,96682.78
2022-12-01T08:59:08.236Z,96691.56
2022-12-01T09:01:51.941Z,96688.84
2022-12-01T09:04:21.331Z,96688.72
2022-12-01T09:06:52.308Z,96688.63
2022-12-01T09:09:23.251Z,96690.50
2022-12-01T09:11:53.327Z,96698.00
2022-12-01T09:14:23.503Z,96694.44
2022-12-01T09:16:52.135Z,96699.66
2022-12-01T09:19:24.767Z,96699.31
2022-12-01T09:21:55.008Z,96694.53
2022-12-01T09:24:23.420Z,96690.97
2022-12-01T09:26:55.586Z,96692.78
2022-12-01T09:29:24.111Z,96701.47
2022-12-01T09:31:52.812Z,96697.66
2022-12-01T09:34:21.926Z,96698.25
2022-12-01T09:36:50.658Z,96705.88
2022-12-01T09:39:22.047Z,96697.28
2022-12-01T09:41:54.384Z,96695.50
2022-12-01T09:44:35.211Z,96690.88
2022-12-01T09:47:11.044Z,96688.59
2022-12-01T09:49:47.569Z,96680.13
2022-12-01T09:52:19.941Z,96682.25
2022-12-01T09:54:50.444Z,96673.78
2022-12-01T09:57:29.503Z,96680.31
2022-12-01T09:59:59.155Z,96676.59
2022-12-01T10:02:36.413Z,96659.81
2022-12-01T10:05:10.880Z,96664.59
2022-12-01T10:07:45.384Z,96668.19
2022-12-01T10:10:18.834Z,96668.03
2022-12-01T10:12:48.479Z,96669.50
2022-12-01T10:15:30.961Z,96667.50
2022-12-01T10:18:14.435Z,96660.19
2022-12-01T10:20:47.582Z,96660.69
2022-12-01T10:23:29.037Z,96661.66
2022-12-01T10:26:01.176Z,96659.38
2022-12-01T10:28:51.571Z,96654.97
2022-12-01T10:31:21.951Z,96652.72
2022-12-01T10:34:00.199Z,96654.13
2022-12-01T10:36:31.607Z,96658.06
2022-12-01T10:39:00.369Z,96646.47
2022-12-01T10:41:33.639Z,96641.25
2022-12-01T10:44:06.888Z,96638.38
2022-12-01T10:46:41.894Z,96636.84
2022-12-01T10:49:12.622Z,96635.19
2022-12-01T10:51:53.996Z,96635.88
2022-12-01T10:54:23.863Z,96635.53
2022-12-01T10:56:58.401Z,96630.84
2022-12-01T10:59:32.495Z,96630.50
2022-12-01T11:02:02.769Z,96624.28
2022-12-01T11:04:42.618Z,96624.97
2022-12-01T11:07:17.402Z,96624.03
2022-12-01T11:09:49.539Z,96620.72
2022-12-01T11:12:20.532Z,96621.66
2022-12-01T11:14:51.800Z,96627.28
2022-12-01T11:17:31.612Z,96617.03
2022-12-01T11:20:00.506Z,96614.19
2022-12-01T11:22:32.074Z,96614.28
2022-12-01T11:25:03.259Z,96616.69
2022-12-01T11:27:37.608Z,96621.53
2022-12-01T11:30:09.031Z,96627.59
2022-12-01T11:32:40.518Z,96617.13
2022-12-01T11:35:19.017Z,96619.38
2022-12-01T11:40:48.751Z,96618.28
2022-12-01T11:43:27.853Z,96613.44
2022-12-01T11:45:59.394Z,96616.75
2022-12-01T11:48:29.781Z,96610.53
2022-12-01T11:51:04.215Z,96611.41
2022-12-01T11:53:35.300Z,96602.25
2022-12-01T11:56:17.441Z,96604.41
2022-12-01T11:58:48.879Z,96603.81
2022-12-01T12:01:29.492Z,96606.44
2022-12-01T12:04:08.099Z,96600.94
2022-12-01T12:06:45.592Z,96597.00
2022-12-01T12:09:56.255Z,96592.06
2022-12-01T12:12:37.222Z,96592.78
2022-12-01T12:15:22.863Z,96587.66
2022-12-01T12:18:08.445Z,96581.34
2022-12-01T12:20:53.148Z,96588.00
2022-12-01T12:23:50.622Z,96588.13
2022-12-01T12:26:23.940Z,96581.06
2022-12-01T12:29:13.967Z,96596.09
2022-12-01T12:31:50.271Z,96581.34
2022-12-01T12:34:28.510Z,96580.25
2022-12-01T12:37:18.994Z,96584.41
2022-12-01T12:40:01.827Z,96582.75
2022-12-01T12:42:43.943Z,96583.84
2022-12-01T12:45:21.776Z,96582.41
2022-12-01T12:48:09.911Z,96584.78
2022-12-01T12:50:44.876Z,96585.50
2022-12-01T12:53:20.805Z,96581.94
2022-12-01T12:55:53.724Z,96582.06
2022-12-01T12:58:27.207Z,96593.47
2022-12-01T13:01:00.731Z,96582.88
2022-12-01T13:03:42.916Z,96583.44
2022-12-01T13:06:15.848Z,96577.88
2022-12-01T13:08:49.066Z,96586.13
2022-12-01T13:11:23.235Z,96586.13
2022-12-01T13:13:58.487Z,96584.91
2022-12-01T13:16:32.427Z,96580.66
2022-12-01T13:19:08.307Z,96583.00
2022-12-01T13:21:41.044Z,96583.69
2022-12-01T13:24:16.234Z,96580.00
2022-12-01T13:26:51.911Z,96579.16
2022-12-01T13:29:24.625Z,96574.75
2022-12-01T13:31:55.018Z,96579.72
2022-12-01T13:34:37.731Z,96575.34
2022-12-01T13:37:06.593Z,96571.88
2022-12-01T13:39:37.120Z,96575.34
2022-12-01T13:42:08.643Z,96567.72
2022-12-01T13:44:42.088Z,96574.63
2022-12-01T13:47:40.118Z,96577.50
2022-12-01T13:50:42.981Z,96575.81
2022-12-01T13:53:14.690Z,96574.19
2022-12-01T13:56:08.018Z,96576.94
2022-12-01T13:58:48.353Z,96569.31
2022-12-01T14:01:46.119Z,96564.75
2022-12-01T14:04:35.306Z,96575.25
2022-12-01T14:07:22.500Z,96578.84
2022-12-01T14:09:54.168Z,96576.34
2022-12-01T14:12:28.600Z,96574.69
2022-12-01T14:15:00.756Z,96578.25
2022-12-01T14:17:31.920Z,96569.47
2022-12-01T14:20:20.072Z,96580.19
2022-12-01T14:22:50.481Z,96573.28
2022-12-01T14:25:29.108Z,96574.13
2022-12-01T14:28:02.412Z,96569.56
2022-12-01T14:31:05.704Z,96582.81
2022-12-01T14:33:46.830Z,96579.00
2022-12-01T14:36:26.357Z,96576.91
2022-12-01T14:39:02.137Z,96586.94
2022-12-01T14:41:39.639Z,96580.03
2022-12-01T14:44:15.295Z,96585.03
2022-12-01T14:46:47.932Z,96582.41
2022-12-01T14:49:22.531Z,96575.38
2022-12-01T14:51:57.379Z,96582.97
2022-12-01T14:54:30.172Z,96589.19
2022-12-01T14:57:08.150Z,96587.88
2022-12-01T14:59:38.663Z,96587.88
2022-12-01T15:02:10.564Z,96597.16
2022-12-01T15:05:07.100Z,96590.81
2022-12-01T15:07:39.387Z,96600.59
2022-12-01T15:10:18.553Z,96599.78
2022-12-01T15:12:49.263Z,96598.25
2022-12-01T15:15:23.650Z,96588.84
2022-12-01T15:17:53.419Z,96597.44
2022-12-01T15:20:34.087Z,96601.69
2022-12-01T15:23:09.075Z,96605.16
2022-12-01T15:25:37.540Z,96600.75
2022-12-01T15:28:14.634Z,96599.06
2022-12-01T15:30:48.191Z,96605.41
2022-12-01T15:33:26.780Z,96602.91
2022-12-01T15:35:57.440Z,96603.84
2022-12-01T15:38:29.597Z,96600.28
2022-12-01T15:41:28.107Z,96600.16
2022-12-01T15:47:35.846Z,96610.78
2022-12-01T15:50:06.031Z,96612.69
2022-12-01T15:52:43.518Z,96610.88
2022-12-01T15:55:25.871Z,96610.88
2022-12-01T15:57:54.433Z,96612.56
2022-12-01T16:00:24.332Z,96610.06
2022-12-01T16:02:56.407Z,96610.88
2022-12-01T16:05:28.120Z,96610.88
2022-12-01T16:08:13.426Z,96607.19
2022-12-01T16:10:42.406Z,96604.56
2022-12-01T16:13:40.756Z,96602.09
2022-12-01T16:16:29.428Z,96597.78
2022-12-01T16:19:02.161Z,96597.66
2022-12-01T16:21:34.104Z,96599.31
2022-12-01T16:24:05.448Z,96599.19
2022-12-01T16:26:34.952Z,96606.13
2022-12-01T16:29:03.433Z,96601.81
2022-12-01T16:31:33.161Z,96601.22
2022-12-01T16:34:18.599Z,96603.16
2022-12-01T16:36:52.780Z,96603.84
2022-12-01T16:39:21.183Z,96602.91
2022-12-01T16:41:49.540Z,96596.69
2022-12-01T16:44:28.553Z,96602.09
2022-12-01T16:46:57.467Z,96593.38
2022-12-01T16:49:27.298Z,96591.72
2022-12-01T16:51:57.190Z,96607.31
2022-12-01T16:54:26.506Z,96606.47
2022-12-01T16:56:54.905Z,96599.59
2022-12-01T16:59:23.443Z,96601.22
2022-12-01T17:01:51.982Z,96596.13
2022-12-01T17:04:20.463Z,96600.53
2022-12-01T17:06:50.168Z,96598.16
2022-12-01T17:09:19.001Z,96598.53
2022-12-01T17:11:47.675Z,96595.91
2022-12-01T17:14:16.063Z,96594.69
2022-12-01T17:16:44.662Z,96596.25
2022-12-01T17:19:13.024Z,96590.03
2022-12-01T17:21:42.080Z,96586.59
2022-12-01T17:24:15.028Z,96591.00
2022-12-01T17:26:47.152Z,96595.28
2022-12-01T17:29:15.516Z,96590.91
2022-12-01T17:31:43.937Z,96587.44
2022-12-01T17:34:12.402Z,96590.91
2022-12-01T17:36:41.688Z,96588.28
2022-12-01T17:39:11.365Z,96586.59
2022-12-01T17:41:40.990Z,96590.03
2022-12-01T17:44:09.376Z,96583.84
2022-12-01T17:46:38.473Z,96586.47
2022-12-01T17:49:09.472Z,96587.69
2022-12-01T17:51:38.605Z,96590.09
2022-12-01T17:54:07.227Z,96589.38
2022-12-01T17:56:36.948Z,96593.19
2022-12-01T17:59:05.372Z,96599.53
2022-12-01T18:01:33.772Z,96597.03
2022-12-01T18:04:02.416Z,96598.81
2022-12-01T18:06:30.774Z,96600.34
2022-12-01T18:09:01.139Z,96591.44
2022-12-01T18:11:29.740Z,96596.41
2022-12-01T18:13:59.623Z,96604.16
2022-12-01T18:16:30.223Z,96602.25
2022-12-01T18:19:00.110Z,96597.81
2022-12-01T18:21:29.640Z,96602.25
2022-12-01T18:24:00.671Z,96601.41
2022-12-01T18:26:30.775Z,96598.66
2022-12-01T18:29:02.600Z,96605.44
2022-12-01T18:31:31.594Z,96609.59
2022-12-01T18:34:02.603Z,96610.41
2022-12-01T18:36:32.252Z,96609.47
2022-12-01T18:39:02.285Z,96611.97
2022-12-01T18:41:31.632Z,96601.38
2022-12-01T18:44:01.357Z,96601.50
2022-12-01T18:46:30.177Z,96599.13
2022-12-01T18:49:02.005Z,96595.91
2022-12-01T18:51:31.392Z,96604.47
2022-12-01T18:54:01.801Z,96600.91
2022-12-01T18:56:30.504Z,96599.94
2022-12-01T18:59:02.032Z,96602.56
2022-12-01T19:01:32.516Z,96592.34
2022-12-01T19:04:01.452Z,96595.19
2022-12-01T19:06:31.060Z,96594.50
2022-12-01T19:09:00.981Z,96596.28
2022-12-01T19:11:29.796Z,96594.59
2022-12-01T19:13:58.591Z,96596.41
2022-12-01T19:16:28.612Z,96592.25
2022-12-01T19:18:57.011Z,96601.06
2022-12-01T19:21:25.485Z,96591.56
2022-12-01T19:23:54.520Z,96594.16
2022-12-01T19:26:25.597Z,96600.22
2022-12-01T19:28:53.926Z,96601.31
2022-12-01T19:31:24.302Z,96600.63
2022-12-01T19:33:55.317Z,96598.22
2022-12-01T19:36:30.840Z,96605.38
2022-12-01T19:39:00.694Z,96592.28
2022-12-01T19:41:32.096Z,96601.81
2022-12-01T19:44:00.487Z,96608.47
2022-12-01T19:46:28.913Z,96597.28
2022-12-01T19:49:01.262Z,96606.69
2022-12-01T19:51:35.087Z,96607.63
2022-12-01T19:54:04.210Z,96595.50
2022-12-01T19:56:32.915Z,96603.22
2022-12-01T19:59:01.766Z,96605.16
2022-12-01T20:01:30.206Z,96608.00
2022-12-01T20:04:00.005Z,96616.09
2022-12-01T20:06:30.715Z,96614.31
2022-12-01T20:09:01.877Z,96615.25
2022-12-01T20:11:32.728Z,96619.44
2022-12-01T20:14:01.153Z,96614.06
2022-12-01T20:16:32.034Z,96620.00
2022-12-01T20:19:04.064Z,96616.69
2022-12-01T20:21:35.197Z,96611.59
2022-12-01T20:24:05.548Z,96620.84
2022-12-01T20:26:38.302Z,96617.03
2022-12-01T20:29:08.946Z,96621.06
2022-12-01T20:31:37.742Z,96612.00
2022-12-01T20:34:09.804Z,96612.00
2022-12-01T20:36:38.774Z,96612.25
2022-12-01T20:39:08.065Z,96610.59
2022-12-01T20:41:36.982Z,96598.59
2022-12-01T20:44:07.703Z,96602.16
2022-12-01T20:46:36.962Z,96594.53
2022-12-01T20:49:07.672Z,96598.00
2022-12-01T20:51:36.513Z,96595.22
2022-12-01T20:56:55.544Z,96594.88
2022-12-01T20:59:24.377Z,96598.31
2022-12-01T21:01:52.817Z,96603.22
2022-12-01T21:04:22.597Z,96594.78
2022-12-01T21:06:51.097Z,96605.38
2022-12-01T21:09:19.469Z,96605.25
2022-12-01T21:12:07.655Z,96600.63
2022-12-01T21:14:38.494Z,96607.38
2022-12-01T21:17:20.076Z,96606.44
2022-12-01T21:19:56.508Z,96600.34
2022-12-01T21:22:26.413Z,96602.97
2022-12-01T21:25:01.819Z,96591.91
2022-12-01T21:27:30.917Z,96605.97
2022-12-01T21:29:59.300Z,96598.94
2022-12-01T21:32:31.341Z,96596.09
2022-12-01T21:35:09.705Z,96598.59
2022-12-01T21:37:38.101Z,96591.56
2022-12-01T21:40:16.774Z,96594.16
2022-12-01T21:42:48.145Z,96598.59
2022-12-01T21:45:23.702Z,96589.88
2022-12-01T21:47:52.065Z,96592.38
2022-12-01T21:50:25.384Z,96594.16
2022-12-01T21:52:59.997Z,96590.97
2022-12-01T21:55:44.648Z,96599.44
2022-12-01T21:58:24.328Z,96588.00
2022-12-01T22:00:53.631Z,96588.97
2022-12-01T22:03:35.435Z,96584.66
2022-12-01T22:06:32.991Z,96587.16
2022-12-01T22:09:03.507Z,96588.13
2022-12-01T22:11:32.587Z,96586.44
2022-12-01T22:14:12.071Z,96591.56
2022-12-01T22:16:43.475Z,96581.81
2022-12-01T22:19:26.217Z,96577.28
2022-12-01T22:22:01.792Z,96576.34
2022-12-01T22:24:41.307Z,96572.88
2022-12-01T22:27:29.170Z,96568.59
2022-12-01T22:29:59.737Z,96566.81
2022-12-01T22:32:37.611Z,96568.72
2022-12-01T22:35:26.423Z,96570.75
2022-12-01T22:38:00.988Z,96574.94
2022-12-01T22:40:34.658Z,96575.56
2022-12-01T22:43:22.592Z,96568.91
2022-12-01T22:45:54.078Z,96569.72
2022-12-01T22:48:36.890Z,96568.03
2022-12-01T22:51:22.441Z,96567.69
2022-12-01T22:53:55.289Z,96561.59
2022-12-01T22:56:38.164Z,96561.38
2022-12-01T22:59:15.379Z,96556.38
2022-12-01T23:01:50.110Z,96555.66
2022-12-01T23:04:26.566Z,96546.75
2022-12-01T23:07:01.426Z,96553.28
2022-12-01T23:09:35.428Z,96554.81
2022-12-01T23:12:21.512Z,96557.44
2022-12-01T23:14:53.092Z,96555.41
2022-12-01T23:17:23.406Z,96552.69
2022-12-01T23:19:53.898Z,96556.81
2022-12-01T23:22:22.257Z,96556.72
2022-12-01T23:24:52.351Z,96550.50
2022-12-01T23:27:21.207Z,96544.91
2022-12-01T23:29:49.533Z,96546.56
2022-12-01T23:32:18.732Z,96538.69
2022-12-01T23:34:47.071Z,96535.97
2022-12-01T23:37:32.415Z,96528.91
2022-12-01T23:40:03.439Z,96523.56
2022-12-01T23:42:32.177Z,96529.75
2022-12-01T23:45:00.559Z,96520.13
2022-12-01T23:47:31.222Z,96518.31
2022-12-01T23:50:04.443Z,96518.22
2022-12-01T23:52:37.483Z,96507.84
2022-12-01T23:55:29.698Z,96513.91
2022-12-01T23:57:59.509Z,96508.69
